sensor_id;sensor_type;location;lat;lon;timestamp;pressure;altitude;pressure_sealevel;temperature;humidity
5574;BME280;2563;52.242;7.956;2023-04-05T00:02:07;101868.81;;;0.12;100.00
5574;BME280;2563;52.242;7.956;2023-04-05T00:04:35;101873.72;;;0.09;100.00
5574;BME280;2563;52.242;7.956;2023-04-05T00:07:02;101868.63;;;0.08;100.00
5574;BME280;2563;52.242;7.956;2023-04-05T00:09:32;101864.31;;;0.05;100.00
5574;BME280;2563;52.242;7.956;2023-04-05T00:11:57;101869.22;;;0.02;100.00
5574;BME280;2563;52.242;7.956;2023-04-05T00:14:22;101868.13;;;-0.05;100.00
5574;BME280;2563;52.242;7.956;2023-04-05T00:16:48;101863.94;;;-0.04;100.00
5574;BME280;2563;52.242;7.956;2023-04-05T00:19:14;101861.13;;;-0.10;100.00
5574;BME280;2563;52.242;7.956;2023-04-05T00:21:39;101860.09;;;-0.15;100.00
5574;BME280;2563;52.242;7.956;2023-04-05T00:24:06;101862.31;;;-0.23;100.00
5574;BME280;2563;52.242;7.956;2023-04-05T00:26:32;101869.44;;;-0.34;100.00
5574;BME280;2563;52.242;7.956;2023-04-05T00:28:57;101875.41;;;-0.53;100.00
5574;BME280;2563;52.242;7.956;2023-04-05T00:31:22;101868.88;;;-0.67;100.00
5574;BME280;2563;52.242;7.956;2023-04-05T00:33:48;101866.91;;;-0.55;100.00
5574;BME280;2563;52.242;7.956;2023-04-05T00:36:16;101867.38;;;-0.63;100.00
5574;BME280;2563;52.242;7.956;2023-04-05T00:38:42;101861.66;;;-0.59;100.00
5574;BME280;2563;52.242;7.956;2023-04-05T00:41:08;101857.34;;;-0.62;100.00
5574;BME280;2563;52.242;7.956;2023-04-05T00:43:33;101871.63;;;-0.62;100.00
5574;BME280;2563;52.242;7.956;2023-04-05T00:46:00;101860.41;;;-0.69;100.00
5574;BME280;2563;52.242;7.956;2023-04-05T00:48:27;101859.50;;;-0.70;100.00
5574;BME280;2563;52.242;7.956;2023-04-05T00:50:53;101864.44;;;-0.73;100.00
5574;BME280;2563;52.242;7.956;2023-04-05T00:53:19;101865.09;;;-0.77;100.00
5574;BME280;2563;52.242;7.956;2023-04-05T00:55:45;101866.97;;;-0.73;100.00
5574;BME280;2563;52.242;7.956;2023-04-05T00:58:12;101868.56;;;-0.75;100.00
5574;BME280;2563;52.242;7.956;2023-04-05T01:00:37;101872.56;;;-0.80;100.00
5574;BME280;2563;52.242;7.956;2023-04-05T01:03:05;101863.31;;;-0.79;100.00
5574;BME280;2563;52.242;7.956;2023-04-05T01:05:46;101863.91;;;-0.85;100.00
5574;BME280;2563;52.242;7.956;2023-04-05T01:08:15;101863.91;;;-0.85;100.00
5574;BME280;2563;52.242;7.956;2023-04-05T01:10:45;101867.78;;;-0.93;100.00
5574;BME280;2563;52.242;7.956;2023-04-05T01:13:15;101875.09;;;-0.99;100.00
5574;BME280;2563;52.242;7.956;2023-04-05T01:15:40;101867.50;;;-0.99;100.00
5574;BME280;2563;52.242;7.956;2023-04-05T01:18:05;101871.91;;;-0.95;100.00
5574;BME280;2563;52.242;7.956;2023-04-05T01:20:38;101868.44;;;-0.97;100.00
5574;BME280;2563;52.242;7.956;2023-04-05T01:26:38;101866.03;;;-1.14;100.00
5574;BME280;2563;52.242;7.956;2023-04-05T01:32:12;101859.09;;;-1.18;100.00
5574;BME280;2563;52.242;7.956;2023-04-05T01:34:48;101862.31;;;-1.22;100.00
5574;BME280;2563;52.242;7.956;2023-04-05T01:37:17;101859.69;;;-1.23;100.00
5574;BME280;2563;52.242;7.956;2023-04-05T01:39:44;101862.00;;;-1.28;100.00
5574;BME280;2563;52.242;7.956;2023-04-05T01:42:19;101861.16;;;-1.29;100.00
5574;BME280;2563;52.242;7.956;2023-04-05T01:44:47;101855.06;;;-1.32;100.00
5574;BME280;2563;52.242;7.956;2023-04-05T01:47:12;101856.81;;;-1.31;100.00
5574;BME280;2563;52.242;7.956;2023-04-05T01:49:38;101856.66;;;-1.34;100.00
5574;BME280;2563;52.242;7.956;2023-04-05T01:52:03;101855.81;;;-1.35;100.00
5574;BME280;2563;52.242;7.956;2023-04-05T01:54:28;101859.06;;;-1.37;100.00
5574;BME280;2563;52.242;7.956;2023-04-05T01:56:54;101851.34;;;-1.40;100.00
5574;BME280;2563;52.242;7.956;2023-04-05T01:59:19;101846.31;;;-1.40;100.00
5574;BME280;2563;52.242;7.956;2023-04-05T02:01:44;101841.69;;;-1.49;100.00
5574;BME280;2563;52.242;7.956;2023-04-05T02:04:10;101845.59;;;-1.56;100.00
5574;BME280;2563;52.242;7.956;2023-04-05T02:06:35;101844.28;;;-1.47;100.00
5574;BME280;2563;52.242;7.956;2023-04-05T02:09:00;101842.41;;;-1.52;100.00
5574;BME280;2563;52.242;7.956;2023-04-05T02:11:26;101835.47;;;-1.56;100.00
5574;BME280;2563;52.242;7.956;2023-04-05T02:13:51;101852.75;;;-1.65;100.00
5574;BME280;2563;52.242;7.956;2023-04-05T02:16:16;101843.75;;;-1.60;100.00
5574;BME280;2563;52.242;7.956;2023-04-05T02:18:42;101845.44;;;-1.59;100.00
5574;BME280;2563;52.242;7.956;2023-04-05T02:21:14;101856.06;;;-1.66;100.00
5574;BME280;2563;52.242;7.956;2023-04-05T02:23:41;101851.75;;;-1.68;100.00
5574;BME280;2563;52.242;7.956;2023-04-05T02:26:06;101859.75;;;-1.77;100.00
5574;BME280;2563;52.242;7.956;2023-04-05T02:28:31;101849.84;;;-1.73;100.00
5574;BME280;2563;52.242;7.956;2023-04-05T02:30:57;101845.84;;;-1.69;100.00
5574;BME280;2563;52.242;7.956;2023-04-05T02:33:22;101846.34;;;-1.76;100.00
5574;BME280;2563;52.242;7.956;2023-04-05T02:35:49;101844.63;;;-1.77;100.00
5574;BME280;2563;52.242;7.956;2023-04-05T02:38:14;101842.09;;;-1.77;100.00
5574;BME280;2563;52.242;7.956;2023-04-05T02:40:40;101844.53;;;-1.79;100.00
5574;BME280;2563;52.242;7.956;2023-04-05T02:43:06;101832.34;;;-1.87;100.00
5574;BME280;2563;52.242;7.956;2023-04-05T02:45:31;101830.66;;;-1.87;100.00
5574;BME280;2563;52.242;7.956;2023-04-05T02:47:56;101827.47;;;-1.84;100.00
5574;BME280;2563;52.242;7.956;2023-04-05T02:50:22;101827.28;;;-1.87;100.00
5574;BME280;2563;52.242;7.956;2023-04-05T02:52:48;101819.59;;;-1.90;100.00
5574;BME280;2563;52.242;7.956;2023-04-05T02:55:14;101806.88;;;-1.92;100.00
5574;BME280;2563;52.242;7.956;2023-04-05T02:57:41;101804.22;;;-1.95;100.00
5574;BME280;2563;52.242;7.956;2023-04-05T03:00:06;101801.50;;;-2.00;100.00
5574;BME280;2563;52.242;7.956;2023-04-05T03:02:32;101792.97;;;-2.02;100.00
5574;BME280;2563;52.242;7.956;2023-04-05T03:04:58;101784.34;;;-2.07;100.00
5574;BME280;2563;52.242;7.956;2023-04-05T03:07:26;101770.13;;;-2.05;100.00
5574;BME280;2563;52.242;7.956;2023-04-05T03:09:52;101763.38;;;-2.06;100.00
5574;BME280;2563;52.242;7.956;2023-04-05T03:12:18;101757.81;;;-2.17;100.00
5574;BME280;2563;52.242;7.956;2023-04-05T03:14:43;101755.78;;;-2.24;100.00
5574;BME280;2563;52.242;7.956;2023-04-05T03:17:10;101749.09;;;-2.23;100.00
5574;BME280;2563;52.242;7.956;2023-04-05T03:19:36;101738.94;;;-2.25;100.00
5574;BME280;2563;52.242;7.956;2023-04-05T03:22:01;101731.31;;;-2.26;100.00
5574;BME280;2563;52.242;7.956;2023-04-05T03:24:27;101725.94;;;-2.32;100.00
5574;BME280;2563;52.242;7.956;2023-04-05T03:26:52;101717.13;;;-2.24;100.00
5574;BME280;2563;52.242;7.956;2023-04-05T03:29:17;101705.94;;;-2.29;100.00
5574;BME280;2563;52.242;7.956;2023-04-05T03:31:43;101704.19;;;-2.30;100.00
5574;BME280;2563;52.242;7.956;2023-04-05T03:34:09;101694.13;;;-2.30;100.00
5574;BME280;2563;52.242;7.956;2023-04-05T03:36:35;101690.94;;;-2.26;100.00
5574;BME280;2563;52.242;7.956;2023-04-05T03:39:10;101684.88;;;-2.30;100.00
5574;BME280;2563;52.242;7.956;2023-04-05T03:41:36;101677.19;;;-2.33;100.00
5574;BME280;2563;52.242;7.956;2023-04-05T03:44:02;101666.03;;;-2.38;100.00
5574;BME280;2563;52.242;7.956;2023-04-05T03:46:27;101668.63;;;-2.37;100.00
5574;BME280;2563;52.242;7.956;2023-04-05T03:48:53;101659.06;;;-2.44;100.00
5574;BME280;2563;52.242;7.956;2023-04-05T03:51:18;101653.34;;;-2.40;100.00
5574;BME280;2563;52.242;7.956;2023-04-05T03:53:44;101658.25;;;-2.43;100.00
5574;BME280;2563;52.242;7.956;2023-04-05T03:56:10;101648.31;;;-2.40;100.00
5574;BME280;2563;52.242;7.956;2023-04-05T03:58:36;101644.19;;;-2.38;100.00
5574;BME280;2563;52.242;7.956;2023-04-05T04:01:01;101635.56;;;-2.43;100.00
5574;BME280;2563;52.242;7.956;2023-04-05T04:03:27;101618.78;;;-2.42;100.00
5574;BME280;2563;52.242;7.956;2023-04-05T04:05:53;101618.78;;;-2.42;100.00
5574;BME280;2563;52.242;7.956;2023-04-05T04:08:19;101614.19;;;-2.51;100.00
5574;BME280;2563;52.242;7.956;2023-04-05T04:10:45;101611.59;;;-2.52;100.00
5574;BME280;2563;52.242;7.956;2023-04-05T04:13:10;101608.09;;;-2.56;100.00
5574;BME280;2563;52.242;7.956;2023-04-05T04:15:36;101602.84;;;-2.61;100.00
5574;BME280;2563;52.242;7.956;2023-04-05T04:18:01;101595.19;;;-2.62;100.00
5574;BME280;2563;52.242;7.956;2023-04-05T04:20:26;101587.41;;;-2.67;100.00
5574;BME280;2563;52.242;7.956;2023-04-05T04:22:52;101581.78;;;-2.61;100.00
5574;BME280;2563;52.242;7.956;2023-04-05T04:25:18;101580.88;;;-2.63;100.00
5574;BME280;2563;52.242;7.956;2023-04-05T04:27:44;101579.22;;;-2.63;100.00
5574;BME280;2563;52.242;7.956;2023-04-05T04:30:12;101572.50;;;-2.62;100.00
5574;BME280;2563;52.242;7.956;2023-04-05T04:32:39;101566.41;;;-2.67;100.00
5574;BME280;2563;52.242;7.956;2023-04-05T04:35:19;101550.13;;;-2.74;100.00
5574;BME280;2563;52.242;7.956;2023-04-05T04:38:02;101549.06;;;-2.79;100.00
5574;BME280;2563;52.242;7.956;2023-04-05T04:40:34;101542.78;;;-2.69;100.00
5574;BME280;2563;52.242;7.956;2023-04-05T04:43:15;101527.53;;;-2.72;100.00
5574;BME280;2563;52.242;7.956;2023-04-05T04:45:47;101528.34;;;-2.91;100.00
5574;BME280;2563;52.242;7.956;2023-04-05T04:48:15;101513.66;;;-2.82;100.00
5574;BME280;2563;52.242;7.956;2023-04-05T04:50:44;101520.91;;;-2.88;100.00
5574;BME280;2563;52.242;7.956;2023-04-05T04:53:10;101510.41;;;-2.97;100.00
5574;BME280;2563;52.242;7.956;2023-04-05T04:55:37;101519.53;;;-2.82;100.00
5574;BME280;2563;52.242;7.956;2023-04-05T04:58:02;101506.81;;;-2.85;100.00
5574;BME280;2563;52.242;7.956;2023-04-05T05:00:34;101501.78;;;-2.85;100.00
5574;BME280;2563;52.242;7.956;2023-04-05T05:03:01;101498.75;;;-2.78;100.00
5574;BME280;2563;52.242;7.956;2023-04-05T05:05:27;101495.22;;;-2.81;100.00
5574;BME280;2563;52.242;7.956;2023-04-05T05:07:52;101487.38;;;-2.87;100.00
5574;BME280;2563;52.242;7.956;2023-04-05T05:10:18;101478.84;;;-2.71;100.00
5574;BME280;2563;52.242;7.956;2023-04-05T05:12:44;101463.88;;;-2.10;100.00
5574;BME280;2563;52.242;7.956;2023-04-05T05:15:10;101444.88;;;-1.60;100.00
5574;BME280;2563;52.242;7.956;2023-04-05T05:17:36;101426.22;;;-1.20;100.00
5574;BME280;2563;52.242;7.956;2023-04-05T05:20:02;101418.06;;;-0.90;100.00
5574;BME280;2563;52.242;7.956;2023-04-05T05:22:38;101406.03;;;-0.73;100.00
5574;BME280;2563;52.242;7.956;2023-04-05T05:25:05;101419.28;;;-1.03;100.00
5574;BME280;2563;52.242;7.956;2023-04-05T05:27:31;101418.44;;;-0.55;100.00
5574;BME280;2563;52.242;7.956;2023-04-05T05:29:58;101417.56;;;-0.33;100.00
5574;BME280;2563;52.242;7.956;2023-04-05T05:32:23;101421.75;;;-0.08;100.00
5574;BME280;2563;52.242;7.956;2023-04-05T05:34:48;101418.41;;;-0.33;100.00
5574;BME280;2563;52.242;7.956;2023-04-05T05:37:14;101403.88;;;0.13;100.00
5574;BME280;2563;52.242;7.956;2023-04-05T05:39:41;101401.41;;;0.41;100.00
5574;BME280;2563;52.242;7.956;2023-04-05T05:42:08;101399.31;;;0.55;100.00
5574;BME280;2563;52.242;7.956;2023-04-05T05:44:34;101398.81;;;0.67;100.00
5574;BME280;2563;52.242;7.956;2023-04-05T05:47:00;101406.50;;;0.70;100.00
5574;BME280;2563;52.242;7.956;2023-04-05T05:49:25;101401.84;;;0.84;100.00
5574;BME280;2563;52.242;7.956;2023-04-05T05:51:50;101408.00;;;0.92;100.00
5574;BME280;2563;52.242;7.956;2023-04-05T05:54:19;101411.78;;;0.78;100.00
5574;BME280;2563;52.242;7.956;2023-04-05T05:56:45;101422.38;;;0.93;100.00
5574;BME280;2563;52.242;7.956;2023-04-05T05:59:10;101413.03;;;1.21;100.00
5574;BME280;2563;52.242;7.956;2023-04-05T06:01:36;101421.88;;;1.35;100.00
5574;BME280;2563;52.242;7.956;2023-04-05T06:04:03;101422.84;;;1.40;100.00
5574;BME280;2563;52.242;7.956;2023-04-05T06:06:29;101436.38;;;1.39;100.00
5574;BME280;2563;52.242;7.956;2023-04-05T06:08:54;101436.19;;;1.65;100.00
5574;BME280;2563;52.242;7.956;2023-04-05T06:11:20;101434.22;;;1.86;100.00
5574;BME280;2563;52.242;7.956;2023-04-05T06:13:48;101445.81;;;2.08;100.00
5574;BME280;2563;52.242;7.956;2023-04-05T06:16:13;101446.94;;;2.21;100.00
5574;BME280;2563;52.242;7.956;2023-04-05T06:18:38;101449.06;;;2.38;100.00
5574;BME280;2563;52.242;7.956;2023-04-05T06:21:04;101458.53;;;2.46;100.00
5574;BME280;2563;52.242;7.956;2023-04-05T06:23:29;101467.63;;;2.71;100.00
5574;BME280;2563;52.242;7.956;2023-04-05T06:25:55;101479.44;;;2.69;100.00
5574;BME280;2563;52.242;7.956;2023-04-05T06:28:23;101476.88;;;2.69;100.00
5574;BME280;2563;52.242;7.956;2023-04-05T06:30:48;101489.88;;;2.82;100.00
5574;BME280;2563;52.242;7.956;2023-04-05T06:33:14;101487.81;;;3.03;100.00
5574;BME280;2563;52.242;7.956;2023-04-05T06:35:39;101495.19;;;3.32;100.00
5574;BME280;2563;52.242;7.956;2023-04-05T06:38:05;101494.09;;;3.61;100.00
5574;BME280;2563;52.242;7.956;2023-04-05T06:40:30;101502.19;;;3.42;100.00
5574;BME280;2563;52.242;7.956;2023-04-05T06:42:57;101510.06;;;3.54;100.00
5574;BME280;2563;52.242;7.956;2023-04-05T06:45:22;101522.03;;;3.57;100.00
5574;BME280;2563;52.242;7.956;2023-04-05T06:47:48;101520.75;;;3.79;100.00
5574;BME280;2563;52.242;7.956;2023-04-05T06:50:13;101521.59;;;4.25;100.00
5574;BME280;2563;52.242;7.956;2023-04-05T06:52:38;101528.75;;;4.46;100.00
5574;BME280;2563;52.242;7.956;2023-04-05T06:55:04;101538.16;;;4.50;100.00
5574;BME280;2563;52.242;7.956;2023-04-05T06:57:30;101556.88;;;4.03;100.00
5574;BME280;2563;52.242;7.956;2023-04-05T06:59:55;101556.97;;;4.57;100.00
5574;BME280;2563;52.242;7.956;2023-04-05T07:02:21;101568.84;;;5.08;100.00
5574;BME280;2563;52.242;7.956;2023-04-05T07:04:46;101570.09;;;5.38;100.00
5574;BME280;2563;52.242;7.956;2023-04-05T07:07:12;101572.84;;;5.53;100.00
5574;BME280;2563;52.242;7.956;2023-04-05T07:09:38;101579.00;;;5.69;100.00
5574;BME280;2563;52.242;7.956;2023-04-05T07:12:04;101589.84;;;6.18;100.00
5574;BME280;2563;52.242;7.956;2023-04-05T07:14:31;101595.13;;;6.35;100.00
5574;BME280;2563;52.242;7.956;2023-04-05T07:16:57;101591.69;;;6.33;100.00
5574;BME280;2563;52.242;7.956;2023-04-05T07:19:23;101597.91;;;6.56;100.00
5574;BME280;2563;52.242;7.956;2023-04-05T07:21:48;101601.19;;;6.43;100.00
5574;BME280;2563;52.242;7.956;2023-04-05T07:24:13;101607.66;;;7.00;100.00
5574;BME280;2563;52.242;7.956;2023-04-05T07:26:39;101603.91;;;6.62;100.00
5574;BME280;2563;52.242;7.956;2023-04-05T07:29:05;101616.22;;;7.06;100.00
5574;BME280;2563;52.242;7.956;2023-04-05T07:31:32;101607.91;;;7.40;100.00
5574;BME280;2563;52.242;7.956;2023-04-05T07:33:58;101616.28;;;7.18;100.00
5574;BME280;2563;52.242;7.956;2023-04-05T07:36:24;101628.97;;;6.99;100.00
5574;BME280;2563;52.242;7.956;2023-04-05T07:38:52;101631.72;;;7.24;100.00
5574;BME280;2563;52.242;7.956;2023-04-05T07:41:17;101640.47;;;7.60;100.00
5574;BME280;2563;52.242;7.956;2023-04-05T07:43:44;101626.91;;;7.79;100.00
5574;BME280;2563;52.242;7.956;2023-04-05T07:46:09;101635.47;;;7.81;100.00
5574;BME280;2563;52.242;7.956;2023-04-05T07:48:34;101627.94;;;8.27;100.00
5574;BME280;2563;52.242;7.956;2023-04-05T07:51:07;101620.19;;;8.00;100.00
5574;BME280;2563;52.242;7.956;2023-04-05T07:53:33;101618.50;;;8.14;100.00
5574;BME280;2563;52.242;7.956;2023-04-05T07:56:03;101624.53;;;8.33;100.00
5574;BME280;2563;52.242;7.956;2023-04-05T07:58:29;101615.22;;;9.13;100.00
5574;BME280;2563;52.242;7.956;2023-04-05T08:00:59;101608.28;;;9.55;100.00
5574;BME280;2563;52.242;7.956;2023-04-05T08:03:24;101599.78;;;9.26;100.00
5574;BME280;2563;52.242;7.956;2023-04-05T08:05:50;101604.91;;;9.30;100.00
5574;BME280;2563;52.242;7.956;2023-04-05T08:08:15;101598.88;;;9.51;100.00
5574;BME280;2563;52.242;7.956;2023-04-05T08:10:40;101607.47;;;9.21;100.00
5574;BME280;2563;52.242;7.956;2023-04-05T08:13:06;101598.91;;;9.30;100.00
5574;BME280;2563;52.242;7.956;2023-04-05T08:15:33;101604.03;;;9.34;100.00
5574;BME280;2563;52.242;7.956;2023-04-05T08:17:58;101609.69;;;10.27;100.00
5574;BME280;2563;52.242;7.956;2023-04-05T08:20:24;101609.88;;;9.87;100.00
5574;BME280;2563;52.242;7.956;2023-04-05T08:22:49;101622.66;;;10.06;100.00
5574;BME280;2563;52.242;7.956;2023-04-05T08:25:15;101620.09;;;10.06;100.00
5574;BME280;2563;52.242;7.956;2023-04-05T08:27:40;101623.66;;;9.68;100.00
5574;BME280;2563;52.242;7.956;2023-04-05T08:30:06;101633.75;;;10.17;100.00
5574;BME280;2563;52.242;7.956;2023-04-05T08:32:33;101634.41;;;10.59;100.00
5574;BME280;2563;52.242;7.956;2023-04-05T08:34:58;101638.56;;;10.75;100.00
5574;BME280;2563;52.242;7.956;2023-04-05T08:37:23;101641.78;;;11.00;100.00
5574;BME280;2563;52.242;7.956;2023-04-05T08:39:49;101647.06;;;10.86;100.00
5574;BME280;2563;52.242;7.956;2023-04-05T08:42:22;101637.94;;;10.41;100.00
5574;BME280;2563;52.242;7.956;2023-04-05T08:44:51;101635.00;;;10.92;100.00
5574;BME280;2563;52.242;7.956;2023-04-05T08:47:21;101638.41;;;10.94;100.00
5574;BME280;2563;52.242;7.956;2023-04-05T08:49:47;101635.31;;;10.46;100.00
5574;BME280;2563;52.242;7.956;2023-04-05T08:52:13;101638.72;;;10.51;100.00
5574;BME280;2563;52.242;7.956;2023-04-05T08:54:39;101654.13;;;10.60;100.00
5574;BME280;2563;52.242;7.956;2023-04-05T08:57:06;101649.06;;;10.43;100.00
5574;BME280;2563;52.242;7.956;2023-04-05T08:59:32;101650.66;;;10.64;100.00
5574;BME280;2563;52.242;7.956;2023-04-05T09:02:03;101641.25;;;10.61;100.00
5574;BME280;2563;52.242;7.956;2023-04-05T09:04:34;101639.63;;;10.43;100.00
5574;BME280;2563;52.242;7.956;2023-04-05T09:07:05;101638.34;;;11.04;100.00
5574;BME280;2563;52.242;7.956;2023-04-05T09:09:32;101636.88;;;10.71;100.00
5574;BME280;2563;52.242;7.956;2023-04-05T09:12:02;101640.38;;;10.64;100.00
5574;BME280;2563;52.242;7.956;2023-04-05T09:14:29;101637.97;;;10.35;100.00
5574;BME280;2563;52.242;7.956;2023-04-05T09:17:01;101635.22;;;10.64;100.00
5574;BME280;2563;52.242;7.956;2023-04-05T09:19:27;101632.72;;;11.49;100.00
5574;BME280;2563;52.242;7.956;2023-04-05T09:21:59;101627.09;;;11.95;100.00
5574;BME280;2563;52.242;7.956;2023-04-05T09:24:44;101627.38;;;11.67;100.00
5574;BME280;2563;52.242;7.956;2023-04-05T09:29:37;101627.44;;;11.64;100.00
5574;BME280;2563;52.242;7.956;2023-04-05T09:32:04;101624.09;;;11.53;100.00
5574;BME280;2563;52.242;7.956;2023-04-05T09:34:31;101621.75;;;11.32;100.00
5574;BME280;2563;52.242;7.956;2023-04-05T09:36:58;101615.28;;;11.73;100.00
5574;BME280;2563;52.242;7.956;2023-04-05T09:39:28;101606.47;;;11.95;100.00
5574;BME280;2563;52.242;7.956;2023-04-05T09:44:54;101604.16;;;12.37;100.00
5574;BME280;2563;52.242;7.956;2023-04-05T09:47:25;101611.06;;;11.67;100.00
5574;BME280;2563;52.242;7.956;2023-04-05T09:49:55;101608.47;;;12.37;100.00
5574;BME280;2563;52.242;7.956;2023-04-05T09:52:24;101601.09;;;12.10;100.00
5574;BME280;2563;52.242;7.956;2023-04-05T09:54:52;101609.25;;;12.43;100.00
5574;BME280;2563;52.242;7.956;2023-04-05T09:57:19;101612.41;;;12.62;100.00
5574;BME280;2563;52.242;7.956;2023-04-05T09:59:45;101605.44;;;12.66;100.00
5574;BME280;2563;52.242;7.956;2023-04-05T10:02:11;101608.84;;;12.68;100.00
5574;BME280;2563;52.242;7.956;2023-04-05T10:04:41;101607.13;;;12.09;100.00
5574;BME280;2563;52.242;7.956;2023-04-05T10:07:12;101615.81;;;12.63;100.00
5574;BME280;2563;52.242;7.956;2023-04-05T10:09:42;101606.72;;;12.93;100.00
5574;BME280;2563;52.242;7.956;2023-04-05T10:12:09;101604.66;;;12.61;100.00
5574;BME280;2563;52.242;7.956;2023-04-05T10:14:35;101605.81;;;12.95;100.00
5574;BME280;2563;52.242;7.956;2023-04-05T10:17:23;101598.34;;;13.28;100.00
5574;BME280;2563;52.242;7.956;2023-04-05T10:25:35;101592.00;;;13.88;100.00
5574;BME280;2563;52.242;7.956;2023-04-05T10:28:09;101590.31;;;13.44;100.00
5574;BME280;2563;52.242;7.956;2023-04-05T10:30:49;101586.78;;;13.91;100.00
5574;BME280;2563;52.242;7.956;2023-04-05T10:33:19;101589.38;;;13.90;100.00
5574;BME280;2563;52.242;7.956;2023-04-05T10:35:59;101585.72;;;14.00;100.00
5574;BME280;2563;52.242;7.956;2023-04-05T10:38:44;101587.81;;;14.21;100.00
5574;BME280;2563;52.242;7.956;2023-04-05T10:41:16;101575.81;;;13.78;100.00
5574;BME280;2563;52.242;7.956;2023-04-05T10:43:42;101582.78;;;14.54;100.00
5574;BME280;2563;52.242;7.956;2023-04-05T10:46:09;101584.66;;;14.82;100.00
5574;BME280;2563;52.242;7.956;2023-04-05T10:48:58;101570.03;;;13.22;100.00
5574;BME280;2563;52.242;7.956;2023-04-05T10:51:28;101576.06;;;13.66;100.00
5574;BME280;2563;52.242;7.956;2023-04-05T10:53:55;101574.41;;;13.62;100.00
5574;BME280;2563;52.242;7.956;2023-04-05T10:56:22;101561.44;;;13.20;100.00
5574;BME280;2563;52.242;7.956;2023-04-05T10:58:48;101560.63;;;14.03;100.00
5574;BME280;2563;52.242;7.956;2023-04-05T11:01:15;101560.09;;;13.88;100.00
5574;BME280;2563;52.242;7.956;2023-04-05T11:06:23;101560.34;;;14.16;100.00
5574;BME280;2563;52.242;7.956;2023-04-05T11:08:52;101544.50;;;14.65;100.00
5574;BME280;2563;52.242;7.956;2023-04-05T11:11:21;101537.69;;;14.61;95.49
5574;BME280;2563;52.242;7.956;2023-04-05T11:13:54;101532.56;;;14.93;92.57
5574;BME280;2563;52.242;7.956;2023-04-05T11:16:21;101534.38;;;13.81;82.91
5574;BME280;2563;52.242;7.956;2023-04-05T11:18:48;101533.31;;;14.63;79.15
5574;BME280;2563;52.242;7.956;2023-04-05T11:21:22;101526.38;;;13.91;74.68
5574;BME280;2563;52.242;7.956;2023-04-05T11:26:52;101513.13;;;14.40;66.71
5574;BME280;2563;52.242;7.956;2023-04-05T11:29:44;101506.81;;;15.18;68.20
5574;BME280;2563;52.242;7.956;2023-04-05T11:32:13;101509.91;;;14.66;65.98
5574;BME280;2563;52.242;7.956;2023-04-05T11:34:41;101511.22;;;14.83;65.16
5574;BME280;2563;52.242;7.956;2023-04-05T11:37:07;101511.81;;;13.87;62.36
5574;BME280;2563;52.242;7.956;2023-04-05T11:39:32;101508.47;;;13.81;62.35
5574;BME280;2563;52.242;7.956;2023-04-05T11:42:03;101501.09;;;14.74;62.78
5574;BME280;2563;52.242;7.956;2023-04-05T11:44:49;101507.53;;;14.21;61.69
5574;BME280;2563;52.242;7.956;2023-04-05T11:47:17;101494.03;;;14.79;61.29
5574;BME280;2563;52.242;7.956;2023-04-05T11:49:48;101485.66;;;15.02;60.80
5574;BME280;2563;52.242;7.956;2023-04-05T11:52:19;101493.03;;;14.50;59.54
5574;BME280;2563;52.242;7.956;2023-04-05T11:54:45;101496.59;;;13.31;60.24
5574;BME280;2563;52.242;7.956;2023-04-05T11:57:12;101488.75;;;13.35;60.35
5574;BME280;2563;52.242;7.956;2023-04-05T11:59:39;101483.88;;;12.75;59.70
5574;BME280;2563;52.242;7.956;2023-04-05T12:02:05;101485.81;;;13.52;61.68
5574;BME280;2563;52.242;7.956;2023-04-05T12:04:33;101478.78;;;13.57;59.71
5574;BME280;2563;52.242;7.956;2023-04-05T12:07:15;101472.91;;;14.25;59.07
5574;BME280;2563;52.242;7.956;2023-04-05T12:10:06;101473.78;;;14.93;59.94
5574;BME280;2563;52.242;7.956;2023-04-05T12:12:35;101462.84;;;15.72;61.04
5574;BME280;2563;52.242;7.956;2023-04-05T12:15:02;101466.84;;;15.55;58.46
5574;BME280;2563;52.242;7.956;2023-04-05T12:17:38;101460.13;;;15.18;57.11
5574;BME280;2563;52.242;7.956;2023-04-05T12:20:04;101452.34;;;15.18;57.15
5574;BME280;2563;52.242;7.956;2023-04-05T12:22:30;101448.06;;;15.17;58.68
5574;BME280;2563;52.242;7.956;2023-04-05T12:24:56;101452.31;;;14.88;59.53
5574;BME280;2563;52.242;7.956;2023-04-05T12:27:21;101448.16;;;15.73;61.52
5574;BME280;2563;52.242;7.956;2023-04-05T12:30:24;101441.91;;;15.79;57.61
5574;BME280;2563;52.242;7.956;2023-04-05T12:32:55;101440.19;;;14.90;54.70
5574;BME280;2563;52.242;7.956;2023-04-05T12:35:23;101453.66;;;14.36;54.94
5574;BME280;2563;52.242;7.956;2023-04-05T12:37:57;101444.69;;;14.15;55.08
5574;BME280;2563;52.242;7.956;2023-04-05T12:40:24;101450.00;;;13.34;55.52
5574;BME280;2563;52.242;7.956;2023-04-05T12:42:50;101441.59;;;12.79;56.91
5574;BME280;2563;52.242;7.956;2023-04-05T12:45:15;101439.22;;;13.12;57.95
5574;BME280;2563;52.242;7.956;2023-04-05T12:47:58;101435.72;;;14.30;59.56
5574;BME280;2563;52.242;7.956;2023-04-05T12:50:27;101435.19;;;14.50;59.12
5574;BME280;2563;52.242;7.956;2023-04-05T12:52:57;101440.31;;;13.44;58.29
5574;BME280;2563;52.242;7.956;2023-04-05T12:55:24;101443.88;;;12.94;59.00
5574;BME280;2563;52.242;7.956;2023-04-05T12:58:00;101443.47;;;12.71;59.08
5574;BME280;2563;52.242;7.956;2023-04-05T13:00:28;101442.88;;;12.07;60.53
5574;BME280;2563;52.242;7.956;2023-04-05T13:02:56;101446.22;;;12.10;61.01
5574;BME280;2563;52.242;7.956;2023-04-05T13:05:24;101442.28;;;11.85;60.85
5574;BME280;2563;52.242;7.956;2023-04-05T13:07:50;101429.72;;;11.63;62.18
5574;BME280;2563;52.242;7.956;2023-04-05T13:10:17;101436.66;;;11.58;62.52
5574;BME280;2563;52.242;7.956;2023-04-05T13:12:44;101440.41;;;11.36;62.31
5574;BME280;2563;52.242;7.956;2023-04-05T13:15:09;101432.03;;;11.82;63.68
5574;BME280;2563;52.242;7.956;2023-04-05T13:17:35;101425.97;;;11.86;64.14
5574;BME280;2563;52.242;7.956;2023-04-05T13:20:00;101423.66;;;11.66;63.70
5574;BME280;2563;52.242;7.956;2023-04-05T13:22:26;101416.50;;;11.24;62.47
5574;BME280;2563;52.242;7.956;2023-04-05T13:24:51;101409.81;;;12.29;65.83
5574;BME280;2563;52.242;7.956;2023-04-05T13:27:18;101408.06;;;12.76;64.89
5574;BME280;2563;52.242;7.956;2023-04-05T13:29:44;101407.91;;;11.86;62.39
5574;BME280;2563;52.242;7.956;2023-04-05T13:32:09;101406.25;;;12.81;64.92